Time;durP1;ratioP1;P1;durP2;ratioP2;P2;SDS_P1;SDS_P2;PMS_P1;PMS_P2;Temp;Humidity;BMP_temperature;BMP_pressure;BME280_temperature;BME280_humidity;BME280_pressure;Samples;Min_cycle;Max_cycle;Signal;HPM_P1;HPM_P2
2021/11/25 00:01:03;;;;;;;18.20;10.20;;;;;;;3.25;56.37;101704.82;117308;1182;22640;-63
2021/11/25 00:03:33;;;;;;;18.80;10.50;;;;;;;3.21;56.52;101705.69;117336;1186;21854;-60
2021/11/25 00:06:01;;;;;;;17.90;10.30;;;;;;;3.16;56.35;101707.23;117108;1185;22924;-63
2021/11/25 00:08:30;;;;;;;16.20;9.70;;;;;;;3.09;56.42;101704.03;117345;1185;23442;-63
2021/11/25 00:10:59;;;;;;;19.20;9.70;;;;;;;3.02;56.31;101703.58;117370;1185;21845;-62
2021/11/25 00:13:27;;;;;;;14.60;9.30;;;;;;;2.96;56.34;101703.35;117320;1182;24239;-48
2021/11/25 00:15:56;;;;;;;17.60;10.70;;;;;;;2.92;56.23;101698.48;117348;1181;21855;-48
2021/11/25 00:18:25;;;;;;;18.20;9.80;;;;;;;2.86;56.18;101697.20;117354;1176;23497;-49
2021/11/25 00:20:54;;;;;;;14.80;9.30;;;;;;;2.77;56.20;101692.85;117086;1185;21855;-62
2021/11/25 00:23:22;;;;;;;17.30;9.40;;;;;;;2.70;56.36;101693.09;117324;1185;22876;-62
2021/11/25 00:25:51;;;;;;;20.00;11.20;;;;;;;2.64;56.13;101694.58;117436;1181;21857;-62
2021/11/25 00:28:19;;;;;;;22.80;12.70;;;;;;;2.56;56.01;101687.31;117394;1185;21903;-48
2021/11/25 00:30:47;;;;;;;21.20;13.00;;;;;;;2.49;56.07;101683.05;117387;1184;22703;-49
2021/11/25 00:33:16;;;;;;;21.00;11.70;;;;;;;2.42;56.20;101682.41;117391;1182;21854;-62
2021/11/25 00:35:44;;;;;;;14.50;9.00;;;;;;;2.34;56.23;101687.26;117408;1183;21848;-50
2021/11/25 00:38:12;;;;;;;18.00;10.50;;;;;;;2.25;56.09;101689.14;117414;1186;21891;-63
2021/11/25 00:40:41;;;;;;;18.30;10.10;;;;;;;2.20;55.97;101690.83;117279;1185;24156;-48
2021/11/25 00:43:10;;;;;;;17.90;10.90;;;;;;;2.17;56.36;101687.81;117357;1185;23442;-63
2021/11/25 00:45:38;;;;;;;16.60;9.90;;;;;;;2.13;56.08;101682.75;117314;1183;21856;-48
2021/11/25 00:48:13;;;;;;;15.00;9.80;;;;;;;2.08;56.09;101683.39;117234;1184;22348;-49
2021/11/25 00:50:41;;;;;;;15.10;9.90;;;;;;;2.04;56.22;101681.65;117399;1182;23487;-48
2021/11/25 00:53:10;;;;;;;14.50;8.80;;;;;;;2.01;56.28;101677.04;117371;1185;23577;-49
2021/11/25 00:55:39;;;;;;;14.60;7.90;;;;;;;1.99;56.08;101680.23;117361;1182;21854;-49
2021/11/25 00:58:07;;;;;;;12.10;7.40;;;;;;;1.96;56.24;101680.95;117363;1186;21881;-63
2021/11/25 01:00:38;;;;;;;12.60;7.30;;;;;;;1.92;56.09;101675.12;117142;1180;22922;-63
2021/11/25 01:03:07;;;;;;;13.30;7.60;;;;;;;1.89;56.17;101672.73;117246;1182;22926;-63
2021/11/25 01:05:35;;;;;;;14.20;6.80;;;;;;;1.88;56.36;101671.79;117078;1188;21885;-63
2021/11/25 01:08:04;;;;;;;9.00;5.60;;;;;;;1.86;56.15;101668.44;117269;1185;21854;-48
2021/11/25 01:10:33;;;;;;;12.00;7.00;;;;;;;1.86;56.09;101666.33;117332;1185;21855;-49
2021/11/25 01:13:01;;;;;;;12.40;7.10;;;;;;;1.85;56.34;101662.51;117321;1182;21868;-63
2021/11/25 01:15:31;;;;;;;12.50;5.90;;;;;;;1.89;56.32;101660.59;117295;1185;23475;-49
2021/11/25 01:18:02;;;;;;;22.10;11.50;;;;;;;1.95;56.63;101656.89;117290;1185;22881;-48
2021/11/25 01:20:32;;;;;;;15.10;8.40;;;;;;;2.03;56.59;101656.86;117128;1186;23532;-52
2021/11/25 01:23:06;;;;;;;9.90;6.40;;;;;;;2.10;56.49;101657.33;117184;1186;21962;-49
2021/11/25 01:25:36;;;;;;;8.50;4.90;;;;;;;2.19;56.59;101655.82;117299;1185;23451;-63
2021/11/25 01:28:06;;;;;;;9.30;5.10;;;;;;;2.28;56.78;101651.51;117370;1185;23653;-49
2021/11/25 01:30:42;;;;;;;7.80;5.40;;;;;;;2.37;57.00;101648.61;117289;1179;21879;-64
2021/11/25 01:33:10;;;;;;;7.70;4.80;;;;;;;2.47;56.97;101649.69;117286;1186;23715;-48
2021/11/25 01:35:38;;;;;;;6.00;4.20;;;;;;;2.55;56.92;101644.80;117128;1188;22273;-63
2021/11/25 01:38:07;;;;;;;9.00;5.30;;;;;;;2.60;56.81;101639.83;117188;1185;24172;-63
2021/11/25 01:40:36;;;;;;;8.80;5.00;;;;;;;2.61;56.68;101637.80;117346;1185;22831;-48
2021/11/25 01:43:05;;;;;;;7.60;4.10;;;;;;;2.59;56.69;101640.30;117273;1183;23496;-49
2021/11/25 01:45:33;;;;;;;7.70;4.50;;;;;;;2.56;56.52;101642.10;117293;1185;23085;-62
2021/11/25 01:48:03;;;;;;;7.50;5.20;;;;;;;2.52;56.58;101634.81;117369;1183;21895;-53
2021/11/25 01:50:33;;;;;;;8.10;5.20;;;;;;;2.48;56.43;101634.48;117322;1183;23530;-49
2021/11/25 01:53:02;;;;;;;10.90;5.50;;;;;;;2.42;56.36;101629.56;117284;1176;21896;-48
2021/11/25 01:55:31;;;;;;;7.90;5.40;;;;;;;2.39;56.22;101632.55;117298;1183;21843;-48
2021/11/25 01:57:59;;;;;;;9.60;5.50;;;;;;;2.34;56.44;101624.93;117317;1182;21861;-50
2021/11/25 02:00:31;;;;;;;8.60;5.20;;;;;;;2.30;56.40;101624.04;117266;1185;21866;-62
2021/11/25 02:03:00;;;;;;;9.50;5.00;;;;;;;2.23;56.38;101627.75;117305;1179;23200;-48
2021/11/25 02:05:28;;;;;;;8.80;5.10;;;;;;;2.17;56.38;101632.53;117299;1182;21861;-49
2021/11/25 02:07:57;;;;;;;8.50;5.70;;;;;;;2.07;56.29;101634.20;117323;1185;21855;-62
2021/11/25 02:10:26;;;;;;;9.20;5.70;;;;;;;2.00;56.33;101634.05;117464;1186;21845;-63
2021/11/25 02:12:54;;;;;;;9.70;5.60;;;;;;;1.96;56.24;101635.45;117375;1185;23622;-49
2021/11/25 02:15:23;;;;;;;9.40;4.70;;;;;;;1.93;56.36;101631.34;117365;1185;21854;-63
2021/11/25 02:17:52;;;;;;;9.70;6.20;;;;;;;1.91;56.17;101631.63;117301;1182;23468;-48
2021/11/25 02:20:20;;;;;;;8.70;5.40;;;;;;;1.88;56.37;101635.62;117269;1182;21930;-48
2021/11/25 02:22:48;;;;;;;8.30;5.30;;;;;;;1.84;56.16;101634.92;117387;1185;23465;-63
2021/11/25 02:25:17;;;;;;;10.80;6.40;;;;;;;1.80;56.18;101631.63;117361;1182;21865;-63
2021/11/25 02:27:47;;;;;;;10.50;5.90;;;;;;;1.75;56.25;101634.55;117324;1185;24737;-48
2021/11/25 02:30:15;;;;;;;10.90;6.60;;;;;;;1.71;56.24;101632.44;117362;1182;24246;-48
2021/11/25 02:32:45;;;;;;;12.30;6.40;;;;;;;1.62;56.04;101633.64;117435;1176;21855;-63
2021/11/25 02:35:21;;;;;;;11.90;6.60;;;;;;;1.54;56.26;101636.58;117333;1182;22707;-48
2021/11/25 02:37:50;;;;;;;13.50;7.80;;;;;;;1.49;56.22;101639.79;117371;1185;22793;-61
2021/11/25 02:40:23;;;;;;;13.60;7.10;;;;;;;1.46;56.19;101636.02;117500;1183;21863;-63
2021/11/25 02:42:56;;;;;;;9.80;5.90;;;;;;;1.44;56.17;101639.39;117379;1182;23478;-48
2021/11/25 02:45:25;;;;;;;13.50;6.40;;;;;;;1.39;56.05;101639.37;117486;1185;21845;-49
2021/11/25 02:47:54;;;;;;;9.30;6.20;;;;;;;1.36;56.23;101639.91;117482;1185;22487;-49
2021/11/25 02:50:24;;;;;;;11.30;5.80;;;;;;;1.32;56.25;101638.55;117375;1185;22938;-63
2021/11/25 02:52:52;;;;;;;11.40;6.40;;;;;;;1.30;56.14;101638.45;117471;1179;23451;-49
2021/11/25 02:55:20;;;;;;;9.80;6.30;;;;;;;1.30;56.06;101636.71;117295;1185;21866;-63
2021/11/25 02:57:49;;;;;;;8.80;6.00;;;;;;;1.30;56.28;101636.72;117491;1182;23451;-48
2021/11/25 03:00:21;;;;;;;9.80;6.40;;;;;;;1.26;56.30;101634.46;117347;1185;21852;-48
2021/11/25 03:02:54;;;;;;;12.30;6.80;;;;;;;1.22;56.23;101634.27;117451;1185;24149;-63
2021/11/25 03:05:23;;;;;;;11.30;6.70;;;;;;;1.24;56.43;101630.17;117491;1179;24140;-63
2021/11/25 03:08:05;;;;;;;16.20;8.90;;;;;;;1.30;56.44;101624.42;117292;1185;23526;-63
2021/11/25 03:11:01;;;;;;;15.10;8.30;;;;;;;1.38;56.31;101621.48;117374;1185;22922;-63
2021/11/25 03:13:30;;;;;;;11.40;6.80;;;;;;;1.48;56.46;101612.94;117417;1186;21989;-57
2021/11/25 03:15:59;;;;;;;10.50;6.50;;;;;;;1.51;56.49;101615.83;117474;1180;21851;-49
2021/11/25 03:18:29;;;;;;;9.50;5.30;;;;;;;1.54;56.49;101615.61;117419;1185;23282;-48
2021/11/25 03:20:58;;;;;;;10.80;6.00;;;;;;;1.61;56.52;101615.25;117416;1185;22625;-48
2021/11/25 03:23:28;;;;;;;10.30;6.20;;;;;;;1.70;56.82;101614.95;117464;1179;21854;-48
2021/11/25 03:25:57;;;;;;;11.10;6.50;;;;;;;1.78;56.75;101611.65;117395;1183;22914;-63
2021/11/25 03:28:25;;;;;;;12.30;7.20;;;;;;;1.86;56.81;101610.94;117393;1176;21848;-63
2021/11/25 03:30:54;;;;;;;14.20;7.80;;;;;;;1.91;56.65;101609.10;117354;1185;21855;-49
2021/11/25 03:33:26;;;;;;;13.30;7.80;;;;;;;1.92;56.53;101608.10;117366;1182;21858;-63
2021/11/25 03:35:55;;;;;;;13.90;8.00;;;;;;;1.90;56.56;101604.73;117389;1185;22722;-48
2021/11/25 03:38:24;;;;;;;13.70;7.90;;;;;;;1.90;56.66;101599.53;117343;1180;22922;-63
2021/11/25 03:40:53;;;;;;;13.00;8.40;;;;;;;1.89;56.49;101598.98;117307;1184;23448;-61
2021/11/25 03:43:22;;;;;;;11.40;7.90;;;;;;;1.91;56.53;101595.58;117353;1186;23454;-63
2021/11/25 03:45:51;;;;;;;11.50;7.20;;;;;;;1.92;56.50;101593.20;117332;1185;21849;-62
2021/11/25 03:48:23;;;;;;;12.90;7.40;;;;;;;1.95;56.60;101588.48;117344;1182;21865;-48
2021/11/25 03:50:51;;;;;;;11.90;7.10;;;;;;;1.98;56.67;101585.30;117428;1185;22844;-48
2021/11/25 03:53:20;;;;;;;11.10;7.00;;;;;;;2.01;56.51;101583.89;117345;1185;22672;-63
2021/11/25 03:55:48;;;;;;;11.80;7.50;;;;;;;2.04;56.43;101580.02;117392;1186;21855;-57
2021/11/25 03:58:17;;;;;;;11.00;7.10;;;;;;;2.05;56.61;101580.23;117421;1184;22629;-49
2021/11/25 04:00:46;;;;;;;11.40;6.70;;;;;;;2.04;56.61;101574.67;117177;1187;23448;-63
2021/11/25 04:03:15;;;;;;;11.50;7.40;;;;;;;2.03;56.42;101574.63;117393;1181;23168;-63
2021/11/25 04:05:47;;;;;;;13.70;7.80;;;;;;;2.01;56.52;101573.83;117318;1185;21852;-62
2021/11/25 04:08:17;;;;;;;13.30;7.50;;;;;;;1.97;56.32;101573.34;117330;1179;21861;-63
2021/11/25 04:10:45;;;;;;;11.60;6.80;;;;;;;1.92;56.38;101572.27;118238;1185;24185;-48
2021/11/25 04:13:15;;;;;;;;;;;;;;;1.88;56.33;101569.48;117348;1185;23442;-49
2021/11/25 04:15:43;;;;;;;9.90;6.10;;;;;;;1.83;56.30;101565.64;117322;1185;23544;-48
2021/11/25 04:18:12;;;;;;;11.50;7.10;;;;;;;1.77;56.38;101566.27;117493;1185;21855;-54
2021/11/25 04:20:41;;;;;;;11.40;6.70;;;;;;;1.72;56.36;101570.56;117440;1182;22738;-49
2021/11/25 04:23:09;;;;;;;12.80;7.40;;;;;;;1.65;56.27;101571.81;117287;1183;21847;-49
2021/11/25 04:25:39;;;;;;;10.30;6.30;;;;;;;1.58;56.12;101572.55;117423;1186;21857;-62
2021/11/25 04:28:08;;;;;;;11.80;6.60;;;;;;;1.52;56.31;101573.82;117327;1182;23721;-48
2021/11/25 04:35:57;;;;;;;19.50;13.50;;;;;;;1.34;56.23;101573.23;117399;1182;21983;-49
2021/11/25 04:38:25;;;;;;;11.90;7.40;;;;;;;1.34;56.11;101574.95;117336;1176;22802;-63
2021/11/25 04:40:58;;;;;;;11.50;6.60;;;;;;;1.33;56.27;101573.86;117287;1181;23458;-48
2021/11/25 04:43:27;;;;;;;12.00;7.70;;;;;;;1.32;56.20;101578.02;117304;1182;22876;-63
2021/11/25 04:45:56;;;;;;;15.60;7.70;;;;;;;1.35;56.63;101574.30;117076;1186;23474;-48
2021/11/25 04:48:25;;;;;;;12.10;7.20;;;;;;;1.32;56.28;101576.11;117382;1176;21846;-64
2021/11/25 04:50:54;;;;;;;12.50;7.30;;;;;;;1.27;56.24;101577.59;117322;1182;22641;-48
2021/11/25 04:53:23;;;;;;;15.40;9.20;;;;;;;1.17;56.05;101576.30;117350;1185;22925;-63
2021/11/25 04:55:51;;;;;;;20.90;8.40;;;;;;;1.12;56.22;101576.73;117496;1183;21902;-63
2021/11/25 04:58:20;;;;;;;15.40;8.70;;;;;;;1.12;56.32;101576.58;117377;1186;23453;-63
2021/11/25 05:00:49;;;;;;;12.90;7.90;;;;;;;1.14;56.29;101572.50;117398;1183;21856;-63
2021/11/25 05:03:18;;;;;;;17.90;8.50;;;;;;;1.13;56.16;101567.63;117361;1184;23458;-54
2021/11/25 05:05:46;;;;;;;12.50;6.70;;;;;;;1.11;56.18;101565.13;117352;1186;21901;-64
2021/11/25 05:08:14;;;;;;;10.60;6.60;;;;;;;1.10;56.10;101566.98;117326;1186;21855;-49
2021/11/25 05:10:43;;;;;;;12.30;7.40;;;;;;;1.08;56.20;101572.73;117399;1182;23474;-62
2021/11/25 05:13:11;;;;;;;12.40;6.80;;;;;;;1.04;56.32;101576.21;117134;1186;23452;-62
2021/11/25 05:15:40;;;;;;;13.70;6.70;;;;;;;1.00;55.99;101578.62;117431;1185;23693;-49
2021/11/25 05:18:09;;;;;;;12.90;7.20;;;;;;;0.95;56.21;101576.16;117425;1176;24773;-61
2021/11/25 05:20:37;;;;;;;11.90;6.90;;;;;;;0.92;56.19;101572.89;117374;1185;21955;-48
2021/11/25 05:23:06;;;;;;;32.60;9.80;;;;;;;0.92;56.21;101575.65;117343;1185;21902;-48
2021/11/25 05:25:35;;;;;;;76.70;12.50;;;;;;;0.97;56.40;101578.29;117273;1185;21935;-62
2021/11/25 05:28:04;;;;;;;68.20;16.60;;;;;;;1.02;56.31;101579.09;117319;1185;23454;-48
2021/11/25 05:30:32;;;;;;;68.30;12.20;;;;;;;1.03;56.42;101579.13;117377;1185;21942;-48
2021/11/25 05:33:03;;;;;;;120.40;21.30;;;;;;;1.05;56.37;101583.00;117365;1182;22921;-48
2021/11/25 05:35:31;;;;;;;111.10;14.00;;;;;;;1.09;56.42;101580.03;117514;1183;22876;-63
2021/11/25 05:37:59;;;;;;;119.00;14.60;;;;;;;1.14;56.36;101580.64;117344;1182;23454;-48
2021/11/25 05:40:28;;;;;;;28.00;7.50;;;;;;;1.19;56.46;101578.13;117443;1176;23435;-49
2021/11/25 05:42:57;;;;;;;24.60;8.50;;;;;;;1.29;56.39;101573.17;117388;1185;23709;-49
2021/11/25 05:45:26;;;;;;;21.40;6.90;;;;;;;1.31;56.30;101573.14;117350;1185;21867;-63
2021/11/25 05:47:54;;;;;;;17.70;6.90;;;;;;;1.29;56.07;101572.33;118039;1184;24283;-63
2021/11/25 05:50:24;;;;;;;12.40;7.00;;;;;;;1.22;56.07;101579.64;117297;1183;22513;-49
2021/11/25 05:52:53;;;;;;;;;;;;;;;1.15;56.18;101577.73;117365;1186;23001;-63
2021/11/25 05:55:24;;;;;;;15.60;7.90;;;;;;;1.15;55.99;101577.38;117399;1185;22942;-62
2021/11/25 05:57:54;;;;;;;12.40;7.90;;;;;;;1.18;56.20;101580.99;117386;1185;22165;-49
2021/11/25 06:00:22;;;;;;;14.60;8.00;;;;;;;1.23;56.31;101578.94;117177;1186;21835;-62
2021/11/25 06:02:50;;;;;;;15.50;8.90;;;;;;;1.28;56.44;101575.60;117360;1185;23066;-63
2021/11/25 06:05:20;;;;;;;16.20;9.70;;;;;;;1.37;56.39;101580.43;117275;1179;23566;-49
2021/11/25 06:07:49;;;;;;;19.00;8.40;;;;;;;1.44;56.58;101578.85;117497;1185;21857;-48
2021/11/25 06:10:20;;;;;;;15.90;7.90;;;;;;;1.51;56.53;101580.19;117373;1185;22616;-48
2021/11/25 06:12:48;;;;;;;13.50;8.00;;;;;;;1.55;56.51;101577.09;117327;1176;22894;-49
2021/11/25 06:15:17;;;;;;;14.00;8.00;;;;;;;1.58;56.55;101574.45;117437;1180;22995;-49
2021/11/25 06:18:05;;;;;;;18.20;8.80;;;;;;;1.62;56.49;101571.67;117345;1185;21854;-49
2021/11/25 06:20:33;;;;;;;14.60;8.70;;;;;;;1.68;56.64;101573.14;117359;1176;23455;-63
2021/11/25 06:23:01;;;;;;;18.20;8.80;;;;;;;1.78;56.79;101575.66;117272;1176;23557;-60
2021/11/25 06:25:32;;;;;;;15.70;9.10;;;;;;;1.96;57.02;101566.55;117297;1180;21858;-49
2021/11/25 06:28:00;;;;;;;15.80;9.10;;;;;;;2.12;57.11;101565.63;117323;1185;23471;-49
2021/11/25 06:30:29;;;;;;;13.50;8.30;;;;;;;2.24;56.87;101562.31;117383;1185;21951;-63
2021/11/25 06:32:57;;;;;;;19.00;8.80;;;;;;;2.36;57.01;101560.55;117294;1185;21858;-63
2021/11/25 06:35:26;;;;;;;16.80;9.20;;;;;;;2.50;57.09;101558.52;117382;1185;23475;-49
2021/11/25 06:37:54;;;;;;;13.10;8.30;;;;;;;2.66;57.14;101562.23;117264;1179;24184;-52
2021/11/25 06:40:27;;;;;;;16.90;9.50;;;;;;;2.82;57.32;101560.78;117340;1185;21854;-61
2021/11/25 06:43:03;;;;;;;12.10;8.30;;;;;;;3.03;57.57;101562.09;117426;1186;23473;-63
2021/11/25 06:45:31;;;;;;;14.80;8.70;;;;;;;3.21;57.50;101557.91;117440;1183;24623;-64
2021/11/25 06:48:00;;;;;;;15.70;10.20;;;;;;;3.37;57.52;101560.41;117416;1185;21857;-50
2021/11/25 06:50:28;;;;;;;16.90;10.70;;;;;;;3.56;57.40;101558.80;117437;1183;23475;-51
2021/11/25 06:52:56;;;;;;;15.20;10.60;;;;;;;3.75;57.60;101552.70;117525;1182;23448;-49
2021/11/25 06:55:25;;;;;;;19.20;11.80;;;;;;;3.96;57.66;101552.16;117411;1185;23451;-49
2021/11/25 06:57:54;;;;;;;16.90;10.80;;;;;;;4.14;57.55;101549.65;117308;1185;23487;-62
2021/11/25 07:00:25;;;;;;;16.40;11.70;;;;;;;4.33;57.65;101548.02;117337;1183;22960;-58
2021/11/25 07:02:54;;;;;;;21.90;13.50;;;;;;;4.53;58.06;101551.21;117309;1185;21854;-62
2021/11/25 07:05:23;;;;;;;19.00;12.70;;;;;;;4.76;57.97;101551.42;117447;1185;22957;-62
2021/11/25 07:07:52;;;;;;;20.00;13.50;;;;;;;4.97;57.85;101547.88;117454;1184;21887;-62
2021/11/25 07:10:21;;;;;;;22.40;14.20;;;;;;;5.19;58.05;101541.02;117471;1184;22880;-49
2021/11/25 07:12:49;;;;;;;23.20;13.20;;;;;;;5.37;57.87;101543.09;117562;1182;23469;-49
2021/11/25 07:15:20;;;;;;;19.20;13.60;;;;;;;5.55;57.91;101540.96;117321;1176;21957;-63
2021/11/25 07:18:08;;;;;;;21.60;14.10;;;;;;;5.69;57.70;101538.03;117438;1184;23475;-62
2021/11/25 07:20:38;;;;;;;19.20;13.60;;;;;;;5.81;57.85;101537.61;117352;1182;21961;-62
2021/11/25 07:23:06;;;;;;;21.40;13.60;;;;;;;5.91;57.77;101535.98;117501;1185;23581;-62
2021/11/25 07:25:34;;;;;;;26.40;13.80;;;;;;;6.02;57.63;101535.55;117434;1185;22877;-49
2021/11/25 07:28:03;;;;;;;19.90;14.10;;;;;;;6.11;57.86;101532.67;117378;1176;22656;-49
2021/11/25 07:30:32;;;;;;;22.00;13.70;;;;;;;6.19;57.51;101534.42;117319;1185;23560;-49
2021/11/25 07:33:00;;;;;;;19.10;13.20;;;;;;;6.29;57.69;101533.42;117471;1184;23645;-49
2021/11/25 07:35:29;;;;;;;20.90;14.00;;;;;;;6.37;57.83;101531.38;117353;1185;22965;-49
2021/11/25 07:37:59;;;;;;;21.50;13.40;;;;;;;6.46;57.69;101530.70;117369;1182;24248;-64
2021/11/25 07:40:27;;;;;;;20.10;13.30;;;;;;;6.55;58.01;101532.13;117360;1186;22732;-49
2021/11/25 07:42:56;;;;;;;23.40;15.20;;;;;;;6.63;57.94;101527.41;117426;1183;21865;-50
2021/11/25 07:45:27;;;;;;;25.20;15.50;;;;;;;6.69;57.78;101526.67;117316;1186;21857;-50
2021/11/25 07:47:56;;;;;;;21.80;14.20;;;;;;;6.76;57.57;101526.99;117330;1183;21825;-63
2021/11/25 07:50:26;;;;;;;26.10;16.10;;;;;;;6.80;57.77;101525.54;117349;1183;23577;-49
2021/11/25 07:52:56;;;;;;;27.10;16.70;;;;;;;6.87;57.86;101527.23;117430;1179;22008;-62
2021/11/25 07:55:24;;;;;;;22.20;14.10;;;;;;;6.94;57.70;101521.28;117442;1185;22008;-49
2021/11/25 07:57:53;;;;;;;22.50;14.50;;;;;;;7.01;57.64;101523.52;117525;1182;24154;-49
2021/11/25 08:00:22;;;;;;;22.90;15.00;;;;;;;7.05;57.83;101522.73;117397;1186;21862;-64
2021/11/25 08:02:51;;;;;;;23.50;14.60;;;;;;;7.12;58.10;101525.85;117329;1185;21862;-65
2021/11/25 08:05:20;;;;;;;25.10;14.00;;;;;;;7.18;57.92;101522.10;117269;1179;21864;-49
2021/11/25 08:07:56;;;;;;;26.80;15.70;;;;;;;7.23;57.69;101521.52;117249;1186;23701;-64
2021/11/25 08:10:28;;;;;;;22.60;13.60;;;;;;;7.28;57.69;101521.44;117291;1185;24305;-64
2021/11/25 08:13:03;;;;;;;21.10;14.00;;;;;;;7.34;57.74;101515.61;117298;1184;23569;-64
2021/11/25 08:15:44;;;;;;;21.30;13.00;;;;;;;7.41;57.74;101513.14;117303;1182;22758;-54
2021/11/25 08:18:12;;;;;;;22.20;14.10;;;;;;;7.47;57.76;101512.91;117318;1185;22782;-64
2021/11/25 08:20:41;;;;;;;18.40;11.90;;;;;;;7.54;57.83;101514.94;117385;1185;21858;-52
2021/11/25 08:23:09;;;;;;;19.80;11.40;;;;;;;7.60;57.85;101511.38;117423;1183;23550;-50
2021/11/25 08:25:37;;;;;;;16.10;11.30;;;;;;;7.67;57.93;101511.34;117323;1185;23749;-49
2021/11/25 08:28:07;;;;;;;21.50;11.10;;;;;;;7.70;57.80;101508.59;117403;1186;23529;-49
2021/11/25 08:30:35;;;;;;;15.60;10.40;;;;;;;7.74;57.90;101504.46;117333;1184;21848;-64
2021/11/25 08:33:04;;;;;;;17.20;9.40;;;;;;;7.78;57.75;101502.96;117349;1185;22663;-65
2021/11/25 08:35:32;;;;;;;12.80;8.70;;;;;;;7.82;57.81;101496.04;117307;1185;21865;-61
2021/11/25 08:38:02;;;;;;;13.70;8.90;;;;;;;7.87;57.96;101496.66;117501;1185;23693;-49
2021/11/25 08:40:32;;;;;;;13.50;8.70;;;;;;;7.93;57.88;101492.38;117319;1185;21890;-51
2021/11/25 08:43:01;;;;;;;14.10;9.00;;;;;;;8.00;57.81;101486.36;117459;1186;21848;-64
2021/11/25 08:45:29;;;;;;;13.70;8.60;;;;;;;8.09;58.07;101484.06;117382;1185;21988;-65
2021/11/25 08:47:58;;;;;;;11.00;7.80;;;;;;;8.16;58.03;101485.58;117381;1186;23573;-65
2021/11/25 08:50:27;;;;;;;12.40;9.00;;;;;;;8.24;57.92;101479.40;117485;1185;21881;-50
2021/11/25 08:52:56;;;;;;;13.60;9.60;;;;;;;8.33;58.02;101474.81;117431;1184;23570;-50
2021/11/25 08:55:27;;;;;;;14.30;9.80;;;;;;;8.41;58.00;101472.13;117263;1182;23644;-65
2021/11/25 08:57:55;;;;;;;15.50;9.00;;;;;;;8.47;57.92;101465.58;117256;1186;21846;-50
2021/11/25 09:00:23;;;;;;;13.30;9.50;;;;;;;8.54;57.97;101463.59;117465;1186;23519;-50
2021/11/25 09:02:53;;;;;;;12.60;8.80;;;;;;;8.60;57.88;101457.72;117346;1185;21959;-65
2021/11/25 09:05:22;;;;;;;16.00;10.50;;;;;;;8.68;57.93;101452.73;117447;1182;21989;-66
2021/11/25 09:07:51;;;;;;;14.30;9.10;;;;;;;8.77;58.08;101451.83;117425;1185;23685;-65
2021/11/25 09:10:20;;;;;;;15.00;9.10;;;;;;;8.86;58.00;101448.07;117328;1180;22927;-65
2021/11/25 09:12:49;;;;;;;14.50;8.70;;;;;;;8.94;57.98;101441.86;117296;1185;22644;-65
2021/11/25 09:15:43;;;;;;;11.60;8.40;;;;;;;9.03;58.01;101437.05;117162;1185;23637;-66
2021/11/25 09:18:11;;;;;;;11.90;8.90;;;;;;;9.13;58.02;101437.16;117372;1186;23641;-50
2021/11/25 09:20:41;;;;;;;14.20;8.30;;;;;;;9.30;58.22;101434.52;117518;1184;22704;-63
2021/11/25 09:23:14;;;;;;;15.40;8.60;;;;;;;9.54;58.11;101428.45;117318;1182;21854;-65
2021/11/25 09:25:43;;;;;;;11.40;8.10;;;;;;;9.71;58.02;101422.11;117324;1183;24161;-65
2021/11/25 09:28:14;;;;;;;13.00;8.90;;;;;;;9.79;58.16;101420.07;117432;1183;21875;-65
2021/11/25 09:30:42;;;;;;;;;;;;;;;9.81;57.80;101418.51;117431;1185;21859;-49
2021/11/25 09:33:11;;;;;;;13.00;7.70;;;;;;;9.79;57.53;101415.16;117343;1186;23452;-65
2021/11/25 09:35:39;;;;;;;11.40;8.60;;;;;;;9.74;57.58;101413.18;117294;1186;21891;-50
2021/11/25 09:38:09;;;;;;;11.20;7.60;;;;;;;9.71;57.52;101404.58;117321;1186;21857;-65
2021/11/25 09:40:41;;;;;;;12.30;8.60;;;;;;;9.72;57.69;101405.98;117442;1185;21940;-65
2021/11/25 09:43:11;;;;;;;11.30;7.40;;;;;;;9.76;57.71;101402.52;117332;1182;24165;-51
2021/11/25 09:45:41;;;;;;;13.70;7.90;;;;;;;9.80;57.61;101405.16;117398;1185;21856;-51
2021/11/25 09:48:10;;;;;;;10.00;7.50;;;;;;;9.79;57.72;101400.95;117475;1183;23659;-50
2021/11/25 09:50:44;;;;;;;11.60;7.70;;;;;;;9.76;57.53;101397.27;117450;1179;23477;-64
2021/11/25 09:53:14;;;;;;;12.50;7.40;;;;;;;9.78;57.54;101392.37;117346;1183;23549;-65
2021/11/25 09:55:43;;;;;;;9.70;6.80;;;;;;;9.80;57.36;101389.75;117284;1186;23451;-65
2021/11/25 09:58:13;;;;;;;12.30;8.10;;;;;;;9.79;57.42;101387.11;119211;1182;21859;-51
2021/11/25 10:00:48;;;;;;;16.30;7.70;;;;;;;9.82;57.56;101384.67;117385;1180;22922;-65
2021/11/25 10:03:17;;;;;;;12.30;7.90;;;;;;;9.88;57.57;101381.55;117299;1182;23448;-65
2021/11/25 10:05:49;;;;;;;24.90;8.50;;;;;;;9.91;57.72;101376.50;117361;1182;21854;-65
2021/11/25 10:08:30;;;;;;;13.50;7.60;;;;;;;9.93;57.34;101373.89;117468;1184;23635;-65
2021/11/25 10:11:08;;;;;;;11.50;7.20;;;;;;;9.97;57.45;101370.21;117491;1186;23557;-65
2021/11/25 10:13:41;;;;;;;10.40;6.90;;;;;;;10.02;57.44;101368.84;117398;1183;21864;-66
2021/11/25 10:16:17;;;;;;;10.50;7.40;;;;;;;10.06;57.53;101362.91;117345;1183;23448;-50
2021/11/25 10:18:46;;;;;;;12.60;7.20;;;;;;;10.07;57.42;101362.75;117282;1183;23050;-65
2021/11/25 10:21:17;;;;;;;12.00;7.30;;;;;;;10.05;57.25;101356.06;117435;1185;21856;-50
2021/11/25 10:23:46;;;;;;;;;;;;;;;10.04;57.47;101359.04;117429;1182;23432;-50
2021/11/25 10:26:18;;;;;;;15.60;7.50;;;;;;;10.00;57.19;101359.02;117476;1185;22882;-51
2021/11/25 10:28:50;;;;;;;11.00;7.30;;;;;;;9.92;57.31;101353.55;117386;1185;23624;-65
2021/11/25 10:31:40;;;;;;;9.90;6.70;;;;;;;9.85;57.18;101353.14;117283;1183;21857;-50
2021/11/25 10:34:15;;;;;;;17.20;7.70;;;;;;;9.79;57.13;101347.84;117313;1185;23490;-64
2021/11/25 10:36:57;;;;;;;12.70;7.20;;;;;;;9.74;57.25;101343.42;117352;1177;21847;-51
2021/11/25 10:42:07;;;;;;;12.60;6.90;;;;;;;9.72;57.26;101333.95;117328;1185;22834;-65
2021/11/25 10:44:41;;;;;;;8.90;6.80;;;;;;;9.81;57.48;101331.02;117383;1185;22903;-50
2021/11/25 10:47:14;;;;;;;11.90;7.70;;;;;;;9.91;57.59;101330.58;117277;1184;22427;-51
2021/11/25 10:49:58;;;;;;;11.10;7.50;;;;;;;9.99;57.54;101328.33;117418;1185;21862;-50
2021/11/25 10:52:39;;;;;;;13.80;7.80;;;;;;;10.01;57.49;101323.95;117343;1185;22535;-64
2021/11/25 10:55:09;;;;;;;9.90;8.10;;;;;;;10.02;57.35;101321.85;117228;1186;23455;-64
2021/11/25 10:57:51;;;;;;;10.80;7.10;;;;;;;10.07;57.42;101315.39;117341;1183;21899;-49
2021/11/25 11:00:24;;;;;;;10.80;7.40;;;;;;;10.13;57.55;101308.93;117366;1183;23474;-53
2021/11/25 11:03:12;;;;;;;17.50;7.20;;;;;;;10.18;57.50;101303.51;117329;1182;24171;-64
2021/11/25 11:06:04;;;;;;;10.90;7.50;;;;;;;10.25;57.52;101298.98;117343;1183;22922;-50
2021/11/25 11:08:43;;;;;;;12.30;7.70;;;;;;;10.31;57.36;101297.25;117378;1185;22874;-50
2021/11/25 11:11:11;;;;;;;15.00;7.70;;;;;;;10.31;57.37;101292.34;117487;1182;23550;-50
2021/11/25 11:16:30;;;;;;;13.10;7.40;;;;;;;10.33;57.21;101290.60;117332;1185;22864;-64
2021/11/25 11:19:01;;;;;;;9.30;6.50;;;;;;;10.35;57.21;101279.73;117434;1186;21963;-64
2021/11/25 11:21:43;;;;;;;10.20;7.10;;;;;;;10.37;57.33;101272.02;117467;1179;21899;-64
2021/11/25 11:24:35;;;;;;;11.50;7.30;;;;;;;10.38;57.43;101274.81;117434;1186;21897;-50
2021/11/25 11:27:07;;;;;;;10.70;6.90;;;;;;;10.41;57.45;101272.57;117272;1182;21857;-65
2021/11/25 11:29:38;;;;;;;11.30;7.10;;;;;;;10.38;57.33;101269.58;117350;1186;23542;-65
2021/11/25 11:32:12;;;;;;;11.30;7.00;;;;;;;10.35;57.18;101268.85;117326;1182;23449;-65
2021/11/25 11:34:41;;;;;;;11.90;6.80;;;;;;;10.34;57.17;101264.11;117256;1185;24261;-66
2021/11/25 11:37:12;;;;;;;9.20;6.90;;;;;;;10.27;57.23;101265.48;117398;1185;21853;-54
2021/11/25 11:40:01;;;;;;;8.90;6.80;;;;;;;10.22;57.30;101260.55;117417;1186;23645;-50
2021/11/25 11:42:51;;;;;;;11.60;7.00;;;;;;;10.20;57.26;101259.66;117286;1186;21857;-53